Time;durP1;ratioP1;P1;durP2;ratioP2;P2;SDS_P1;SDS_P2;PMS_P1;PMS_P2;Temp;Humidity;BMP_temperature;BMP_pressure;BME280_temperature;BME280_humidity;BME280_pressure;Samples;Min_cycle;Max_cycle;Signal;HPM_P1;HPM_P2
2022/01/26 00:00:18;;;;;;;18.30;10.50;;;4.90;99.90;;;;;;5119697;28;20424;-72
2022/01/26 00:05:48;;;;;;;23.23;9.93;;;4.90;99.90;;;;;;5122786;28;20427;-72
2022/01/26 00:08:14;;;;;;;19.33;10.33;;;4.90;99.90;;;;;;5119135;28;20451;-71
2022/01/26 00:10:41;;;;;;;22.07;10.80;;;4.90;99.90;;;;;;5118550;28;20937;-71
2022/01/26 00:13:08;;;;;;;21.97;10.80;;;4.90;99.90;;;;;;5119821;28;20517;-70
2022/01/26 00:15:36;;;;;;;21.00;10.53;;;4.90;99.90;;;;;;5120184;28;20464;-72
2022/01/26 00:18:03;;;;;;;22.30;11.00;;;4.90;99.90;;;;;;5121225;28;20943;-71
2022/01/26 00:20:37;;;;;;;20.07;10.07;;;4.80;99.90;;;;;;5119746;28;20790;-71
2022/01/26 00:23:20;;;;;;;29.97;12.40;;;4.80;99.90;;;;;;5121271;28;20447;-71
2022/01/26 00:26:00;;;;;;;22.50;10.60;;;4.80;99.90;;;;;;5120539;28;20443;-71
2022/01/26 00:28:46;;;;;;;21.37;11.97;;;4.80;99.90;;;;;;5121628;28;20483;-71
2022/01/26 00:32:56;;;;;;;23.17;11.60;;;4.80;99.90;;;;;;5119385;28;20473;-71
2022/01/26 00:39:40;;;;;;;26.10;11.57;;;4.80;99.90;;;;;;5121041;28;20466;-70
2022/01/26 00:42:07;;;;;;;26.33;12.50;;;4.80;99.90;;;;;;5120159;28;20532;-70
2022/01/26 00:44:40;;;;;;;25.87;12.93;;;4.90;99.90;;;;;;5120737;28;20452;-70
2022/01/26 00:47:09;;;;;;;21.67;11.50;;;4.90;99.90;;;;;;5120083;28;20944;-70
2022/01/26 00:49:35;;;;;;;22.13;11.23;;;4.80;99.90;;;;;;5121102;27;20930;-71
2022/01/26 00:52:05;;;;;;;23.50;11.90;;;4.80;99.90;;;;;;5118024;28;20740;-72
2022/01/26 00:54:32;;;;;;;23.63;12.03;;;4.90;99.90;;;;;;5116285;27;20981;-72
2022/01/26 00:56:59;;;;;;;22.37;11.40;;;4.80;99.90;;;;;;5116533;28;20471;-72
2022/01/26 00:59:26;;;;;;;25.20;11.70;;;4.80;99.90;;;;;;5117324;28;20467;-74
2022/01/26 01:01:55;;;;;;;24.93;11.90;;;4.80;99.90;;;;;;5116584;28;20791;-72
2022/01/26 01:04:23;;;;;;;22.73;12.10;;;4.80;99.90;;;;;;5117170;28;20452;-74
2022/01/26 01:06:55;;;;;;;21.40;11.63;;;4.80;99.90;;;;;;5115518;28;20475;-74
2022/01/26 01:09:23;;;;;;;26.53;10.70;;;4.80;99.90;;;;;;5115891;28;20509;-73
2022/01/26 01:11:55;;;;;;;19.50;12.10;;;4.90;99.90;;;;;;5116030;28;20891;-73
2022/01/26 01:14:22;;;;;;;22.47;11.40;;;4.80;99.90;;;;;;5116191;28;20424;-74
2022/01/26 01:16:49;;;;;;;23.77;14.00;;;4.80;99.90;;;;;;5116408;28;20505;-74
2022/01/26 01:19:29;;;;;;;26.07;12.40;;;4.80;99.90;;;;;;5116428;28;20456;-74
2022/01/26 01:30:33;;;;;;;21.97;11.43;;;4.80;99.90;;;;;;5120991;28;20528;-72
2022/01/26 01:33:08;;;;;;;26.07;11.77;;;4.80;99.90;;;;;;5119143;28;20446;-70
2022/01/26 01:35:38;;;;;;;22.40;11.40;;;4.80;99.90;;;;;;5118323;28;20444;-69
2022/01/26 01:38:12;;;;;;;23.57;11.37;;;4.80;99.90;;;;;;5117890;28;20539;-71
2022/01/26 01:40:41;;;;;;;25.70;12.20;;;4.80;99.90;;;;;;5117612;28;20432;-71
2022/01/26 01:43:09;;;;;;;27.03;12.40;;;4.80;99.90;;;;;;5117407;28;20456;-71
2022/01/26 01:45:38;;;;;;;22.03;10.10;;;4.80;99.90;;;;;;5117389;28;20452;-69
2022/01/26 01:48:06;;;;;;;22.87;11.20;;;4.70;99.90;;;;;;5117067;28;20480;-69
2022/01/26 01:50:37;;;;;;;22.53;10.67;;;4.70;99.90;;;;;;5116235;28;20476;-70
2022/01/26 01:53:06;;;;;;;27.10;11.57;;;4.70;99.90;;;;;;5115732;28;20437;-70
2022/01/26 01:55:33;;;;;;;22.20;10.37;;;4.70;99.90;;;;;;5118901;28;20739;-71
2022/01/26 01:58:00;;;;;;;21.70;10.13;;;4.70;99.90;;;;;;5128736;27;20464;-70
2022/01/26 02:00:28;;;;;;;19.47;10.23;;;4.60;99.90;;;;;;5119437;28;20453;-70
2022/01/26 02:02:54;;;;;;;24.10;10.33;;;4.60;99.90;;;;;;5118973;28;20460;-71
2022/01/26 02:05:21;;;;;;;24.73;12.00;;;4.60;99.90;;;;;;5119129;28;20456;-71
2022/01/26 02:07:48;;;;;;;21.37;9.87;;;4.70;99.90;;;;;;5118872;27;20460;-70
2022/01/26 02:10:16;;;;;;;19.57;9.63;;;4.60;99.90;;;;;;5118398;28;20487;-70
2022/01/26 02:12:47;;;;;;;20.00;9.87;;;4.60;99.90;;;;;;5118512;28;20482;-70
2022/01/26 02:15:19;;;;;;;24.33;10.37;;;4.60;99.90;;;;;;5118553;28;20436;-71
2022/01/26 02:18:10;;;;;;;21.90;10.50;;;4.60;99.90;;;;;;5118436;28;20751;-71
2022/01/26 02:21:04;;;;;;;18.03;10.07;;;4.60;99.90;;;;;;5118556;28;20774;-72
2022/01/26 02:53:51;;;;;;;23.97;11.03;;;4.50;99.90;;;;;;5117874;27;20490;-70
2022/01/26 02:56:23;;;;;;;21.37;10.57;;;4.50;99.90;;;;;;5117561;28;20436;-70
2022/01/26 02:59:08;;;;;;;22.67;10.57;;;4.50;99.90;;;;;;5117639;28;20514;-70
2022/01/26 03:01:53;;;;;;;24.40;10.60;;;4.50;99.90;;;;;;5117551;28;20563;-70
2022/01/26 03:04:28;;;;;;;25.67;12.57;;;4.50;99.90;;;;;;5117718;28;20440;-70
2022/01/26 03:07:00;;;;;;;23.37;10.63;;;4.50;99.90;;;;;;5115915;28;20880;-70
2022/01/26 03:09:33;;;;;;;26.23;11.70;;;4.50;99.90;;;;;;5117383;28;20895;-71
2022/01/26 03:12:02;;;;;;;23.13;11.20;;;4.50;99.90;;;;;;5117313;28;20461;-70
2022/01/26 03:14:38;;;;;;;26.20;11.97;;;4.50;99.90;;;;;;5117191;28;20483;-70
2022/01/26 03:17:13;;;;;;;25.73;11.77;;;4.50;99.90;;;;;;5117400;28;20437;-70
2022/01/26 03:19:45;;;;;;;24.63;10.87;;;4.50;99.90;;;;;;5117169;28;20494;-70
2022/01/26 03:30:54;;;;;;;22.90;11.83;;;4.40;99.90;;;;;;5121419;28;20467;-70
2022/01/26 03:33:49;;;;;;;22.97;10.70;;;4.40;99.90;;;;;;5117722;28;20440;-70
2022/01/26 03:36:14;;;;;;;29.70;12.83;;;4.50;99.90;;;;;;5116582;28;20814;-70
2022/01/26 03:38:44;;;;;;;26.33;11.80;;;4.50;99.90;;;;;;5117372;28;20562;-69
2022/01/26 03:41:21;;;;;;;32.43;14.80;;;4.40;99.90;;;;;;5116757;28;20456;-74
2022/01/26 03:43:47;;;;;;;26.23;13.37;;;4.40;99.90;;;;;;5117037;28;20440;-73
2022/01/26 03:46:14;;;;;;;27.83;13.40;;;4.40;99.90;;;;;;5116293;28;20530;-72
2022/01/26 03:48:41;;;;;;;30.63;13.10;;;4.40;99.90;;;;;;5117093;28;20889;-73
2022/01/26 03:51:08;;;;;;;32.43;13.83;;;4.40;99.90;;;;;;5116587;28;20480;-73
2022/01/26 03:53:34;;;;;;;35.60;13.23;;;4.40;99.90;;;;;;5116514;28;20789;-74
2022/01/26 03:56:01;;;;;;;30.17;13.93;;;4.30;99.90;;;;;;5117006;28;20834;-73
2022/01/26 03:58:29;;;;;;;30.30;14.97;;;4.30;99.90;;;;;;5116529;28;20452;-74
2022/01/26 04:00:56;;;;;;;35.97;14.67;;;4.30;99.90;;;;;;5116362;28;20939;-73
2022/01/26 04:03:23;;;;;;;27.37;12.73;;;4.30;99.90;;;;;;5116563;28;20464;-73
2022/01/26 04:05:49;;;;;;;30.20;13.63;;;4.30;99.90;;;;;;5117125;28;20467;-74
2022/01/26 04:08:21;;;;;;;28.70;12.97;;;4.30;99.90;;;;;;5116589;28;20452;-73
2022/01/26 04:10:59;;;;;;;29.30;13.60;;;4.30;99.90;;;;;;5116088;27;20521;-73
2022/01/26 04:13:26;;;;;;;29.67;12.50;;;4.30;99.90;;;;;;5116692;28;20451;-75
2022/01/26 04:15:54;;;;;;;32.70;13.37;;;4.30;99.90;;;;;;5116775;27;20460;-73
2022/01/26 04:18:26;;;;;;;31.47;13.50;;;4.20;99.90;;;;;;5115975;28;20452;-73
2022/01/26 04:20:56;;;;;;;29.40;14.20;;;4.20;99.90;;;;;;5116386;28;20437;-73
2022/01/26 04:23:30;;;;;;;33.43;13.77;;;4.20;99.90;;;;;;5116425;28;20500;-73
2022/01/26 04:25:57;;;;;;;26.23;13.50;;;4.20;99.90;;;;;;5115939;28;20761;-74
2022/01/26 04:28:29;;;;;;;30.00;13.73;;;4.20;99.90;;;;;;5116755;28;20557;-72
2022/01/26 04:30:57;;;;;;;28.07;13.33;;;4.20;99.90;;;;;;5115919;28;20460;-72
2022/01/26 04:33:24;;;;;;;32.60;14.40;;;4.20;99.90;;;;;;5116080;28;20459;-74
2022/01/26 04:35:50;;;;;;;34.03;14.63;;;4.20;99.90;;;;;;5115376;27;20463;-73
2022/01/26 04:38:22;;;;;;;26.33;12.20;;;4.20;99.90;;;;;;5116031;28;20888;-73
2022/01/26 04:41:00;;;;;;;31.73;13.47;;;4.20;99.90;;;;;;5115596;28;20444;-72
2022/01/26 04:43:31;;;;;;;30.43;13.80;;;4.20;99.90;;;;;;5116008;28;20742;-75
2022/01/26 04:45:59;;;;;;;29.37;13.23;;;4.20;99.90;;;;;;5117074;28;20455;-74
2022/01/26 04:48:26;;;;;;;26.10;12.30;;;4.20;99.90;;;;;;5116516;28;20476;-73
2022/01/26 04:50:53;;;;;;;29.87;13.23;;;4.20;99.90;;;;;;5117131;28;20487;-72
2022/01/26 04:53:21;;;;;;;32.30;13.80;;;4.20;99.90;;;;;;5115578;28;20464;-73
2022/01/26 04:55:47;;;;;;;31.83;14.50;;;4.20;99.90;;;;;;5116041;28;20456;-72
2022/01/26 04:58:15;;;;;;;31.50;13.80;;;4.20;99.90;;;;;;5115662;28;20453;-72
2022/01/26 05:00:42;;;;;;;30.43;13.67;;;4.20;99.90;;;;;;5115948;27;20467;-73
2022/01/26 05:03:10;;;;;;;28.83;12.83;;;4.20;99.90;;;;;;5115987;28;20452;-73
2022/01/26 05:05:37;;;;;;;31.03;14.10;;;4.10;99.90;;;;;;5116584;28;20464;-72
2022/01/26 05:08:04;;;;;;;33.30;13.23;;;4.10;99.90;;;;;;5116306;28;20461;-73
2022/01/26 05:10:30;;;;;;;30.30;13.63;;;4.00;99.90;;;;;;5115915;28;20456;-69
2022/01/26 05:12:57;;;;;;;27.83;12.47;;;4.00;99.90;;;;;;5115305;28;20464;-70
2022/01/26 05:15:25;;;;;;;28.20;12.30;;;4.00;99.90;;;;;;5115344;28;20521;-70
2022/01/26 05:17:52;;;;;;;29.87;12.57;;;3.90;99.90;;;;;;5115330;28;20456;-70
2022/01/26 05:20:20;;;;;;;27.00;10.73;;;3.90;99.90;;;;;;5115005;28;20456;-70
2022/01/26 05:22:47;;;;;;;30.70;12.87;;;3.90;99.90;;;;;;5115319;28;20464;-70
2022/01/26 05:25:14;;;;;;;26.10;12.23;;;3.90;99.90;;;;;;5115260;28;20900;-70
2022/01/26 05:27:41;;;;;;;29.07;12.20;;;3.80;99.90;;;;;;5115107;28;20471;-70
2022/01/26 05:30:10;;;;;;;23.57;10.80;;;3.80;99.90;;;;;;5117713;28;20759;-70
2022/01/26 05:32:36;;;;;;;27.77;11.17;;;3.90;99.90;;;;;;5118928;28;20552;-70
2022/01/26 05:35:04;;;;;;;27.73;10.33;;;3.90;99.90;;;;;;5119554;28;20460;-70
2022/01/26 05:37:32;;;;;;;20.93;10.17;;;3.80;99.90;;;;;;5119448;28;20464;-73
2022/01/26 05:39:59;;;;;;;29.80;13.13;;;3.90;99.90;;;;;;5118899;28;20456;-70
2022/01/26 05:42:25;;;;;;;23.83;10.93;;;3.90;99.90;;;;;;5119191;28;20463;-71
2022/01/26 05:44:54;;;;;;;24.97;11.47;;;3.80;99.90;;;;;;5118868;28;20459;-70
2022/01/26 05:47:24;;;;;;;23.83;9.83;;;3.80;99.90;;;;;;5118644;28;20484;-71
2022/01/26 05:49:50;;;;;;;24.80;11.20;;;3.80;99.90;;;;;;5119425;28;20482;-71
2022/01/26 05:52:17;;;;;;;19.77;10.60;;;3.70;99.90;;;;;;5119866;28;20472;-71
2022/01/26 05:54:46;;;;;;;20.20;10.13;;;3.80;99.90;;;;;;5119048;28;20763;-70
2022/01/26 05:57:13;;;;;;;18.50;9.37;;;3.70;99.90;;;;;;5118943;28;20928;-71
2022/01/26 05:59:40;;;;;;;21.40;10.10;;;3.70;99.90;;;;;;5119063;28;20460;-71
2022/01/26 06:02:06;;;;;;;20.27;10.30;;;3.70;99.90;;;;;;5119052;28;20459;-70
2022/01/26 06:04:33;;;;;;;21.50;9.40;;;3.60;99.90;;;;;;5121148;28;20452;-70
2022/01/26 06:07:00;;;;;;;24.47;10.33;;;3.70;99.90;;;;;;5123585;28;20460;-70
2022/01/26 06:09:27;;;;;;;28.43;10.00;;;3.60;99.90;;;;;;5121856;27;20464;-71
2022/01/26 06:11:55;;;;;;;22.03;9.70;;;3.60;99.90;;;;;;5120121;28;20506;-71
2022/01/26 06:14:21;;;;;;;18.77;8.80;;;3.60;99.90;;;;;;5121742;28;20486;-71
2022/01/26 06:16:48;;;;;;;23.17;9.57;;;3.60;99.90;;;;;;5122247;28;20528;-70
2022/01/26 06:19:15;;;;;;;22.40;10.90;;;3.60;99.90;;;;;;5119063;28;20462;-70
2022/01/26 06:21:41;;;;;;;19.33;8.87;;;3.50;99.90;;;;;;5118651;27;20448;-70
2022/01/26 06:24:08;;;;;;;25.00;10.20;;;3.50;99.90;;;;;;5118470;28;20467;-70
2022/01/26 06:26:36;;;;;;;21.90;10.60;;;3.50;99.90;;;;;;5118244;28;20460;-70
2022/01/26 06:29:04;;;;;;;22.70;10.37;;;3.50;99.90;;;;;;5118345;28;20452;-70
2022/01/26 06:31:31;;;;;;;19.20;9.43;;;3.50;99.90;;;;;;5117929;28;20483;-70
2022/01/26 06:34:01;;;;;;;30.30;11.47;;;3.50;99.90;;;;;;5118216;28;20521;-70
2022/01/26 06:36:30;;;;;;;28.43;11.43;;;3.50;99.90;;;;;;5118184;28;20809;-70
2022/01/26 06:38:56;;;;;;;26.37;12.67;;;3.50;99.90;;;;;;5118042;28;20534;-70
2022/01/26 06:41:26;;;;;;;31.23;12.70;;;3.50;99.90;;;;;;5117945;28;20924;-70
2022/01/26 06:44:00;;;;;;;30.60;13.20;;;3.50;99.90;;;;;;5117891;28;20481;-70
2022/01/26 06:46:36;;;;;;;29.63;13.57;;;3.50;99.90;;;;;;5117410;28;20620;-70
2022/01/26 06:49:28;;;;;;;35.93;14.60;;;3.50;99.90;;;;;;5117845;28;20778;-71
2022/01/26 06:51:56;;;;;;;34.33;14.40;;;3.50;99.90;;;;;;5121160;28;20476;-71
2022/01/26 06:54:23;;;;;;;35.53;15.30;;;3.60;99.90;;;;;;5124876;28;20463;-71
2022/01/26 06:56:50;;;;;;;34.13;15.07;;;3.60;99.90;;;;;;5117879;28;20619;-71
2022/01/26 06:59:16;;;;;;;40.33;17.67;;;3.60;99.90;;;;;;5117912;27;20467;-69
2022/01/26 07:01:45;;;;;;;35.87;16.57;;;3.60;99.90;;;;;;5117830;28;20467;-70
2022/01/26 07:04:11;;;;;;;36.70;15.37;;;3.60;99.90;;;;;;5117687;28;20479;-72
2022/01/26 07:06:38;;;;;;;42.27;17.50;;;3.70;99.90;;;;;;5117515;28;20456;-69
2022/01/26 07:09:05;;;;;;;38.97;16.37;;;3.60;99.90;;;;;;5117354;28;20904;-70
2022/01/26 07:11:31;;;;;;;35.70;13.77;;;3.60;99.90;;;;;;5117183;28;20577;-70
2022/01/26 07:14:00;;;;;;;31.83;15.37;;;3.60;99.90;;;;;;5117497;27;20517;-73
2022/01/26 07:21:57;;;;;;;30.90;13.20;;;3.70;99.90;;;;;;5117256;28;20535;-70
2022/01/26 07:24:24;;;;;;;30.97;13.47;;;3.70;99.90;;;;;;5117526;28;20452;-70
2022/01/26 07:26:53;;;;;;;30.13;13.80;;;3.70;99.90;;;;;;5117385;28;20744;-70
2022/01/26 07:29:23;;;;;;;34.60;13.00;;;3.70;99.90;;;;;;5117444;28;20492;-70
2022/01/26 07:31:50;;;;;;;28.47;11.90;;;3.70;99.90;;;;;;5116989;28;20472;-70
2022/01/26 07:34:21;;;;;;;27.53;12.30;;;3.60;99.90;;;;;;5117171;28;20453;-70
2022/01/26 07:36:51;;;;;;;25.70;12.80;;;3.60;99.90;;;;;;5117401;28;20447;-70
2022/01/26 07:39:29;;;;;;;28.40;12.63;;;3.50;99.90;;;;;;5117165;28;20456;-69
2022/01/26 07:41:56;;;;;;;25.23;12.23;;;3.50;99.90;;;;;;5117138;28;20532;-69
2022/01/26 07:44:22;;;;;;;28.83;12.77;;;3.40;99.90;;;;;;5117034;28;20486;-69
2022/01/26 07:46:49;;;;;;;30.30;12.60;;;3.40;99.90;;;;;;5116377;28;20484;-70
2022/01/26 07:49:17;;;;;;;29.30;12.33;;;3.40;99.90;;;;;;5117560;28;20452;-69
2022/01/26 07:51:47;;;;;;;34.30;13.90;;;3.40;99.90;;;;;;5116344;28;20486;-69
2022/01/26 07:54:15;;;;;;;36.77;14.40;;;3.40;99.90;;;;;;5117256;28;20471;-69
2022/01/26 07:56:43;;;;;;;32.13;13.87;;;3.40;99.90;;;;;;5116937;28;20931;-69
2022/01/26 07:59:10;;;;;;;29.83;12.93;;;3.50;99.90;;;;;;5116750;28;20798;-69
2022/01/26 08:01:37;;;;;;;27.57;13.00;;;3.50;99.90;;;;;;5116878;28;20560;-68
2022/01/26 08:04:04;;;;;;;29.00;13.60;;;3.50;99.90;;;;;;5117661;27;20448;-69
2022/01/26 08:06:32;;;;;;;31.37;14.27;;;3.50;99.90;;;;;;5117443;27;20464;-70
2022/01/26 08:08:59;;;;;;;30.80;13.07;;;3.50;99.90;;;;;;5116365;28;20452;-70
2022/01/26 08:11:26;;;;;;;25.70;13.33;;;3.50;99.90;;;;;;5115926;28;20936;-69
2022/01/26 08:13:53;;;;;;;33.97;14.30;;;3.50;99.90;;;;;;5116449;28;20462;-68
2022/01/26 08:16:20;;;;;;;28.50;12.20;;;3.50;99.90;;;;;;5116525;28;20463;-69
2022/01/26 08:18:47;;;;;;;27.67;12.93;;;3.50;99.90;;;;;;5116275;28;20747;-69
2022/01/26 08:21:15;;;;;;;28.90;12.47;;;3.50;99.90;;;;;;5116228;28;20464;-69
2022/01/26 08:23:44;;;;;;;33.13;14.00;;;3.50;99.90;;;;;;5116186;28;20517;-69
2022/01/26 08:26:11;;;;;;;29.43;12.90;;;3.50;99.90;;;;;;5116149;28;20460;-69
2022/01/26 08:28:41;;;;;;;28.13;12.43;;;3.60;99.90;;;;;;5116244;28;20838;-69
2022/01/26 08:31:08;;;;;;;27.13;13.00;;;3.50;99.90;;;;;;5116361;28;20452;-69
2022/01/26 08:33:35;;;;;;;24.73;11.07;;;3.50;99.90;;;;;;5116104;28;20987;-68
2022/01/26 08:36:01;;;;;;;28.83;12.27;;;3.50;99.90;;;;;;5116204;28;20461;-71
2022/01/26 08:38:28;;;;;;;27.63;12.40;;;3.50;99.90;;;;;;5116318;28;20460;-70
2022/01/26 08:40:56;;;;;;;33.00;13.40;;;3.50;99.90;;;;;;5116884;28;20547;-69
2022/01/26 08:43:23;;;;;;;26.57;12.47;;;3.40;99.90;;;;;;5117400;27;20452;-70
2022/01/26 08:45:50;;;;;;;27.90;11.27;;;3.40;99.90;;;;;;5117745;28;20551;-70
2022/01/26 08:48:17;;;;;;;28.03;11.83;;;3.40;99.90;;;;;;5117697;28;20488;-70
2022/01/26 08:50:44;;;;;;;31.83;12.13;;;3.40;99.90;;;;;;5119074;28;20463;-72
2022/01/26 08:53:10;;;;;;;26.97;12.60;;;3.50;99.90;;;;;;5121908;28;20782;-70
2022/01/26 08:55:37;;;;;;;26.70;12.20;;;3.50;99.90;;;;;;5122190;28;20459;-69
2022/01/26 08:58:06;;;;;;;27.03;11.93;;;3.50;99.90;;;;;;5121041;28;20517;-70
2022/01/26 09:00:35;;;;;;;26.67;10.87;;;3.50;99.90;;;;;;5119963;28;20773;-70
2022/01/26 09:03:01;;;;;;;25.10;11.43;;;3.60;99.90;;;;;;5120525;28;20787;-69
2022/01/26 09:05:28;;;;;;;23.37;10.90;;;3.60;99.90;;;;;;5118679;28;20464;-70
2022/01/26 09:07:58;;;;;;;24.60;11.90;;;3.60;99.90;;;;;;5117034;28;20460;-69
2022/01/26 09:10:27;;;;;;;32.63;13.03;;;3.60;99.90;;;;;;5116454;28;20472;-70
2022/01/26 09:12:54;;;;;;;21.77;11.30;;;3.70;99.90;;;;;;5116629;28;20990;-69
2022/01/26 09:15:27;;;;;;;28.53;12.93;;;3.70;99.90;;;;;;5116040;28;20542;-70
2022/01/26 09:17:54;;;;;;;29.00;11.60;;;3.70;99.90;;;;;;5115866;28;20466;-70
2022/01/26 09:20:21;;;;;;;26.27;11.43;;;3.80;99.90;;;;;;5115437;28;20467;-70
2022/01/26 09:22:47;;;;;;;27.20;13.03;;;3.80;99.90;;;;;;5115460;28;20489;-70
2022/01/26 09:25:14;;;;;;;26.97;11.10;;;3.70;99.90;;;;;;5115093;28;20459;-70
2022/01/26 09:27:41;;;;;;;22.23;10.47;;;3.70;99.90;;;;;;5115357;28;20467;-70
2022/01/26 09:30:09;;;;;;;24.43;10.97;;;3.70;99.90;;;;;;5115630;28;20474;-70
2022/01/26 09:32:38;;;;;;;19.83;10.77;;;3.70;99.90;;;;;;5115045;28;20479;-70
2022/01/26 09:35:06;;;;;;;22.70;10.87;;;3.70;99.90;;;;;;5115398;28;20456;-71
2022/01/26 09:37:33;;;;;;;23.37;10.00;;;3.80;99.90;;;;;;5115414;28;20460;-71
2022/01/26 09:40:00;;;;;;;26.23;10.80;;;3.70;99.90;;;;;;5115574;28;20596;-70
2022/01/26 09:42:27;;;;;;;24.10;11.07;;;3.70;99.90;;;;;;5116229;28;20459;-71
2022/01/26 09:44:54;;;;;;;21.80;9.80;;;3.70;99.90;;;;;;5115819;28;20459;-70
2022/01/26 09:47:22;;;;;;;19.43;9.67;;;3.80;99.90;;;;;;5115679;28;20492;-70
2022/01/26 09:49:50;;;;;;;16.93;9.43;;;3.70;99.90;;;;;;5115212;28;20495;-72
2022/01/26 09:52:21;;;;;;;23.93;11.80;;;3.70;99.90;;;;;;5115551;28;20544;-69
2022/01/26 09:54:49;;;;;;;22.33;9.83;;;3.60;99.90;;;;;;5115772;28;20447;-70
2022/01/26 09:57:17;;;;;;;21.77;10.43;;;3.70;99.90;;;;;;5116603;28;20468;-71
2022/01/26 09:59:43;;;;;;;19.33;9.40;;;3.70;99.90;;;;;;5116164;28;20448;-71
2022/01/26 10:02:21;;;;;;;19.20;10.30;;;3.70;99.90;;;;;;5116343;28;20457;-71
2022/01/26 10:04:55;;;;;;;20.30;10.70;;;3.70;99.90;;;;;;5115371;28;20433;-70
2022/01/26 10:07:27;;;;;;;16.10;9.23;;;3.80;99.90;;;;;;5114350;28;20887;-71
2022/01/26 10:15:32;;;;;;;18.90;9.63;;;3.70;99.90;;;;;;5117758;28;20749;-69
2022/01/26 10:18:07;;;;;;;18.00;9.97;;;3.70;99.90;;;;;;5120171;28;20436;-69
2022/01/26 10:20:46;;;;;;;16.80;9.87;;;3.70;99.90;;;;;;5119310;28;20458;-70
2022/01/26 10:23:16;;;;;;;17.43;8.17;;;3.80;99.90;;;;;;5118588;28;20463;-70
2022/01/26 10:25:45;;;;;;;17.00;9.20;;;3.80;99.90;;;;;;5118988;28;20756;-69
2022/01/26 10:28:13;;;;;;;21.23;9.70;;;3.80;99.90;;;;;;5118852;28;20467;-70
2022/01/26 10:30:45;;;;;;;17.33;8.93;;;3.90;99.90;;;;;;5119096;28;20456;-70
2022/01/26 10:33:14;;;;;;;15.67;8.20;;;3.90;99.90;;;;;;5119250;28;20473;-69
2022/01/26 10:35:41;;;;;;;15.43;8.03;;;3.90;99.90;;;;;;5119409;28;20456;-69
2022/01/26 10:38:09;;;;;;;18.83;7.50;;;4.00;99.90;;;;;;5119308;28;20452;-70
2022/01/26 10:40:38;;;;;;;18.60;7.63;;;4.00;99.90;;;;;;5119160;28;20471;-71
2022/01/26 10:43:09;;;;;;;12.77;7.23;;;4.10;99.90;;;;;;5119679;28;20448;-71
2022/01/26 10:45:46;;;;;;;13.67;6.80;;;4.10;99.90;;;;;;5120151;28;20455;-70
2022/01/26 10:48:28;;;;;;;14.07;8.60;;;4.10;99.90;;;;;;5118267;28;20534;-70
2022/01/26 10:51:31;;;;;;;14.40;7.60;;;4.10;99.90;;;;;;5120043;28;20456;-70
2022/01/26 10:54:10;;;;;;;14.87;8.10;;;4.10;99.90;;;;;;5119437;28;20464;-70
2022/01/26 10:56:39;;;;;;;13.20;7.27;;;4.20;99.90;;;;;;5119521;28;20527;-70
2022/01/26 10:59:06;;;;;;;11.17;6.50;;;4.10;99.90;;;;;;5119214;28;20456;-71
2022/01/26 11:01:36;;;;;;;11.47;6.13;;;4.00;99.90;;;;;;5119398;28;20539;-70
2022/01/26 11:04:03;;;;;;;12.40;6.43;;;4.00;99.90;;;;;;5123206;28;20449;-71
2022/01/26 11:06:31;;;;;;;9.43;6.13;;;3.90;99.90;;;;;;5120594;28;20551;-70
2022/01/26 11:09:07;;;;;;;12.43;6.93;;;3.90;99.90;;;;;;5120456;28;20471;-71
2022/01/26 11:11:39;;;;;;;13.03;6.40;;;3.80;99.90;;;;;;5120698;28;20441;-71
2022/01/26 11:14:16;;;;;;;9.40;6.67;;;3.90;99.90;;;;;;5120568;28;20456;-70
2022/01/26 11:16:53;;;;;;;13.00;7.10;;;3.80;99.90;;;;;;5120525;28;20429;-71
2022/01/26 11:19:21;;;;;;;9.77;6.67;;;3.80;99.90;;;;;;5120915;28;20452;-70
2022/01/26 11:21:48;;;;;;;9.47;5.73;;;3.80;99.90;;;;;;5122101;28;20463;-70
2022/01/26 11:24:20;;;;;;;8.20;5.10;;;3.70;99.90;;;;;;5122959;28;20782;-72
2022/01/26 11:26:49;;;;;;;9.93;5.87;;;3.60;99.90;;;;;;5121389;28;20506;-69
2022/01/26 11:29:17;;;;;;;7.40;5.07;;;3.60;99.90;;;;;;5122748;28;20485;-70
2022/01/26 11:31:45;;;;;;;11.33;6.33;;;3.60;99.90;;;;;;5124754;28;20463;-69
2022/01/26 11:34:12;;;;;;;10.07;6.37;;;3.60;99.90;;;;;;5124641;28;20579;-70
2022/01/26 11:36:42;;;;;;;11.30;6.53;;;3.60;99.90;;;;;;5122258;28;20787;-69
2022/01/26 11:42:24;;;;;;;8.27;5.80;;;3.50;99.90;;;;;;5118012;28;20566;-71
2022/01/26 11:45:04;;;;;;;11.20;5.93;;;3.50;99.90;;;;;;5117200;28;20458;-72
2022/01/26 11:47:32;;;;;;;11.40;5.60;;;3.50;99.90;;;;;;5117026;28;20492;-71
2022/01/26 11:50:09;;;;;;;13.83;6.80;;;3.50;99.90;;;;;;5117991;28;20448;-72
2022/01/26 11:52:38;;;;;;;12.90;5.73;;;3.50;99.90;;;;;;5116823;28;20550;-71
2022/01/26 11:55:21;;;;;;;28.43;16.13;;;3.50;99.90;;;;;;5116729;28;20467;-68
2022/01/26 11:57:51;;;;;;;12.30;6.27;;;3.50;99.90;;;;;;5116844;28;20437;-70
2022/01/26 12:00:36;;;;;;;14.97;6.67;;;3.50;99.90;;;;;;5116459;28;20436;-69
2022/01/26 12:03:08;;;;;;;11.17;6.30;;;3.50;99.90;;;;;;5116015;28;20437;-69
2022/01/26 12:05:45;;;;;;;16.17;6.70;;;3.50;99.90;;;;;;5117542;28;20456;-70
2022/01/26 12:08:12;;;;;;;11.87;7.07;;;3.50;99.90;;;;;;5116780;28;20790;-69
2022/01/26 12:10:40;;;;;;;13.27;6.87;;;3.40;99.90;;;;;;5116170;28;20449;-69
2022/01/26 12:13:09;;;;;;;14.37;6.87;;;3.30;99.90;;;;;;5116136;28;20476;-70
2022/01/26 12:15:43;;;;;;;12.80;7.77;;;3.30;99.90;;;;;;5116287;27;20453;-70
2022/01/26 12:18:23;;;;;;;14.70;7.10;;;3.30;99.90;;;;;;5116333;28;20441;-70
2022/01/26 12:32:26;;;;;;;9.90;5.70;;;3.30;99.90;;;;;;5115918;28;20746;-70
2022/01/26 12:35:03;;;;;;;11.97;6.30;;;3.30;99.90;;;;;;5116109;28;20924;-70
2022/01/26 12:37:41;;;;;;;9.77;5.97;;;3.20;99.90;;;;;;5115783;28;20441;-70
2022/01/26 12:43:02;;;;;;;11.97;5.77;;;3.20;99.90;;;;;;5116068;28;20765;-71
2022/01/26 12:45:29;;;;;;;12.30;6.03;;;3.20;99.90;;;;;;5116328;28;20473;-70
2022/01/26 12:47:58;;;;;;;11.40;5.07;;;3.30;99.90;;;;;;5116329;28;20499;-72
2022/01/26 12:50:26;;;;;;;12.87;6.30;;;3.30;99.90;;;;;;5116309;28;20467;-69
2022/01/26 12:52:54;;;;;;;10.13;5.80;;;3.30;99.90;;;;;;5115399;28;20483;-70
2022/01/26 12:55:22;;;;;;;13.40;6.70;;;3.40;99.90;;;;;;5115298;28;20646;-70
2022/01/26 12:57:49;;;;;;;10.13;6.07;;;3.30;99.90;;;;;;5115996;28;20480;-69
2022/01/26 13:00:18;;;;;;;8.67;4.87;;;3.30;99.90;;;;;;5115323;28;20467;-70
2022/01/26 13:02:45;;;;;;;11.87;5.60;;;3.30;99.90;;;;;;5115473;28;20456;-69
2022/01/26 13:05:14;;;;;;;14.37;6.33;;;3.20;99.90;;;;;;5115077;28;20463;-71
2022/01/26 13:07:41;;;;;;;12.30;7.30;;;3.20;99.90;;;;;;5115245;28;20912;-71
2022/01/26 13:10:15;;;;;;;12.37;6.17;;;3.10;99.90;;;;;;5115107;28;20462;-71
2022/01/26 13:12:42;;;;;;;14.70;6.40;;;3.10;99.90;;;;;;5114928;28;20997;-70
2022/01/26 13:15:17;;;;;;;12.80;7.47;;;3.00;99.90;;;;;;5116546;28;20491;-72
2022/01/26 13:17:50;;;;;;;15.03;7.87;;;3.00;99.90;;;;;;5117179;28;20508;-71
2022/01/26 13:23:18;;;;;;;20.70;8.00;;;3.10;99.90;;;;;;5113142;28;20444;-71
2022/01/26 13:26:00;;;;;;;15.77;7.77;;;3.00;99.90;;;;;;5115576;28;20751;-71
2022/01/26 13:28:41;;;;;;;15.33;6.63;;;3.00;99.90;;;;;;5115249;28;20952;-71
2022/01/26 13:37:11;;;;;;;20.27;7.03;;;2.80;99.90;;;;;;5115297;28;20479;-71
2022/01/26 13:39:49;;;;;;;14.13;7.10;;;2.80;99.90;;;;;;5115363;28;20441;-70
2022/01/26 13:50:39;;;;;;;16.53;8.10;;;2.80;99.90;;;;;;5117712;28;20424;-71
2022/01/26 13:53:09;;;;;;;18.83;8.60;;;2.80;99.90;;;;;;5120924;28;20437;-71
2022/01/26 13:55:56;;;;;;;33.23;11.00;;;2.90;99.90;;;;;;5119942;28;20472;-72
2022/01/26 13:58:45;;;;;;;24.20;9.83;;;2.90;99.90;;;;;;5119890;28;20888;-72
2022/01/26 14:01:19;;;;;;;21.67;10.40;;;2.90;99.90;;;;;;5119011;28;20535;-71
2022/01/26 14:03:51;;;;;;;24.90;10.63;;;2.90;99.90;;;;;;5118685;28;20428;-71
2022/01/26 14:06:19;;;;;;;25.77;12.07;;;2.90;99.90;;;;;;5119035;28;20451;-71
2022/01/26 14:08:45;;;;;;;28.47;10.53;;;3.00;99.90;;;;;;5118941;28;20900;-72
2022/01/26 14:11:12;;;;;;;27.47;11.40;;;3.00;99.90;;;;;;5120702;28;20463;-71
2022/01/26 14:13:39;;;;;;;27.77;11.43;;;3.00;99.90;;;;;;5121165;28;20533;-71
2022/01/26 14:16:09;;;;;;;24.63;11.53;;;3.00;99.90;;;;;;5120510;28;20462;-72
2022/01/26 14:18:46;;;;;;;25.87;10.57;;;2.90;99.90;;;;;;5119170;28;20444;-72
2022/01/26 14:21:33;;;;;;;23.83;10.00;;;2.90;99.90;;;;;;5118705;28;20435;-71
2022/01/26 14:24:24;;;;;;;26.87;12.10;;;2.90;99.90;;;;;;5118880;28;20437;-70
2022/01/26 14:26:55;;;;;;;24.37;10.93;;;2.90;99.90;;;;;;5119252;28;20472;-71
2022/01/26 14:29:34;;;;;;;26.50;10.90;;;2.90;99.90;;;;;;5119518;28;20440;-72
2022/01/26 15:30:17;;;;;;;29.83;11.97;;;2.80;99.90;;;;;;5121991;28;20481;-70
2022/01/26 15:35:40;;;;;;;37.30;13.30;;;2.70;99.90;;;;;;5120428;28;21025;-69
2022/01/26 15:41:02;;;;;;;34.57;12.63;;;2.70;99.90;;;;;;5117676;28;20780;-71